Time;durP1;ratioP1;P1;durP2;ratioP2;P2;SDS_P1;SDS_P2;PMS_P1;PMS_P2;Temp;Humidity;BMP_temperature;BMP_pressure;BME280_temperature;BME280_humidity;BME280_pressure;Samples;Min_cycle;Max_cycle;Signal;HPM_P1;HPM_P2
2022/03/08 00:02:10;;;;;;;6.57;3.30;;;1.20;99.90;;;;;;5135621;27;20074;-71
2022/03/08 00:04:36;;;;;;;7.15;3.53;;;1.20;99.90;;;;;;5118289;27;20055;-71
2022/03/08 00:07:02;;;;;;;6.15;3.50;;;1.20;99.90;;;;;;5135925;27;20042;-70
2022/03/08 00:09:28;;;;;;;6.60;3.60;;;1.20;99.90;;;;;;5118760;27;20168;-71
2022/03/08 00:11:54;;;;;;;9.30;3.80;;;1.30;99.90;;;;;;5135992;27;20039;-71
2022/03/08 00:14:20;;;;;;;8.90;3.63;;;1.30;99.90;;;;;;5118612;27;20050;-71
2022/03/08 00:16:46;;;;;;;6.32;3.33;;;1.20;99.90;;;;;;5135765;27;20098;-71
2022/03/08 00:19:12;;;;;;;7.43;3.67;;;1.20;99.90;;;;;;5136015;27;20046;-70
2022/03/08 00:21:40;;;;;;;7.43;3.50;;;1.20;99.90;;;;;;5135799;27;20462;-71
2022/03/08 00:24:08;;;;;;;17.98;4.05;;;1.20;99.90;;;;;;5134386;27;20049;-70
2022/03/08 00:26:35;;;;;;;8.55;3.70;;;1.20;99.90;;;;;;5124473;27;20126;-71
2022/03/08 00:29:02;;;;;;;8.13;3.55;;;1.20;99.90;;;;;;5115238;27;20630;-71
2022/03/08 00:31:28;;;;;;;6.18;3.70;;;1.20;99.90;;;;;;5115128;27;20047;-71
2022/03/08 00:33:54;;;;;;;8.13;3.58;;;1.10;99.90;;;;;;5114952;27;20122;-70
2022/03/08 00:36:20;;;;;;;5.05;2.95;;;1.20;99.90;;;;;;5134598;27;20522;-71
2022/03/08 00:38:46;;;;;;;8.15;3.67;;;1.20;99.90;;;;;;5117462;27;20135;-71
2022/03/08 00:41:12;;;;;;;6.00;3.03;;;1.20;99.90;;;;;;5154182;27;20100;-70
2022/03/08 00:43:38;;;;;;;6.18;3.33;;;1.20;99.90;;;;;;5135186;27;20417;-71
2022/03/08 00:46:04;;;;;;;8.05;3.50;;;1.10;99.90;;;;;;5135248;27;20042;-71
2022/03/08 00:48:33;;;;;;;7.68;3.58;;;1.10;99.90;;;;;;5153795;27;20582;-70
2022/03/08 00:50:59;;;;;;;8.30;4.22;;;1.10;99.90;;;;;;5135180;27;20511;-71
2022/03/08 00:53:27;;;;;;;8.27;4.05;;;1.10;99.90;;;;;;5134918;27;20051;-71
2022/03/08 00:55:53;;;;;;;7.10;4.28;;;1.00;99.90;;;;;;5118179;27;20046;-71
2022/03/08 00:58:20;;;;;;;7.13;3.63;;;1.10;99.90;;;;;;5135056;27;20043;-71
2022/03/08 01:00:46;;;;;;;7.95;3.67;;;1.10;99.90;;;;;;5133841;27;20465;-71
2022/03/08 01:03:12;;;;;;;7.38;3.95;;;1.00;99.90;;;;;;5134887;27;20137;-71
2022/03/08 01:05:38;;;;;;;9.50;3.70;;;1.00;99.90;;;;;;5117505;27;20086;-71
2022/03/08 01:08:05;;;;;;;8.75;3.90;;;1.00;99.90;;;;;;5117372;27;20077;-70
2022/03/08 01:10:31;;;;;;;18.02;4.97;;;1.10;99.90;;;;;;5134830;27;20107;-70
2022/03/08 01:12:58;;;;;;;9.43;3.35;;;1.00;99.90;;;;;;5135109;27;20054;-70
2022/03/08 01:15:26;;;;;;;8.60;3.53;;;1.00;99.90;;;;;;5117827;27;20047;-70
2022/03/08 01:17:54;;;;;;;8.55;4.15;;;1.00;99.90;;;;;;5117936;27;20121;-70
2022/03/08 01:20:20;;;;;;;8.57;4.80;;;0.90;99.90;;;;;;5134726;27;20450;-71
2022/03/08 01:22:46;;;;;;;9.80;3.97;;;0.90;99.90;;;;;;5134621;27;20042;-70
2022/03/08 01:25:14;;;;;;;8.90;3.88;;;0.90;99.90;;;;;;5134767;27;20465;-70
2022/03/08 01:27:40;;;;;;;9.55;4.40;;;0.90;99.90;;;;;;5117359;27;20129;-70
2022/03/08 01:30:09;;;;;;;7.78;3.83;;;0.90;99.90;;;;;;5134441;27;20095;-70
2022/03/08 01:32:35;;;;;;;10.05;3.80;;;0.80;99.90;;;;;;5117527;27;20073;-70
2022/03/08 01:35:01;;;;;;;9.95;4.30;;;0.80;99.90;;;;;;5134630;27;20401;-70
2022/03/08 01:37:27;;;;;;;9.80;4.35;;;0.80;99.90;;;;;;5134574;27;20078;-70
2022/03/08 01:39:54;;;;;;;10.55;4.30;;;0.70;99.90;;;;;;5134557;27;20462;-70
2022/03/08 01:42:23;;;;;;;9.68;5.53;;;0.80;99.90;;;;;;5134360;27;20160;-70
2022/03/08 01:44:50;;;;;;;7.97;4.38;;;0.70;99.90;;;;;;5083936;27;20089;-70
2022/03/08 01:47:18;;;;;;;8.40;4.63;;;0.70;99.90;;;;;;5100589;27;20047;-71
2022/03/08 01:49:45;;;;;;;9.85;4.10;;;0.60;99.90;;;;;;5117851;27;20444;-71
2022/03/08 01:52:11;;;;;;;9.68;4.70;;;0.60;99.90;;;;;;5134524;27;20050;-70
2022/03/08 01:54:37;;;;;;;8.38;4.47;;;0.60;99.90;;;;;;5134256;27;20106;-70
2022/03/08 01:57:04;;;;;;;10.45;5.22;;;0.60;99.90;;;;;;5153307;27;20130;-70
2022/03/08 01:59:30;;;;;;;10.00;4.78;;;0.60;99.90;;;;;;5134405;27;20047;-70
2022/03/08 02:01:56;;;;;;;7.88;4.28;;;0.60;99.90;;;;;;5133618;27;20042;-70
2022/03/08 02:04:22;;;;;;;9.95;5.70;;;0.60;99.90;;;;;;5117002;27;20051;-70
2022/03/08 02:06:48;;;;;;;8.40;4.85;;;0.60;99.90;;;;;;5133625;27;20061;-70
2022/03/08 02:09:14;;;;;;;9.50;6.05;;;0.60;99.90;;;;;;5134517;27;20053;-70
2022/03/08 02:11:41;;;;;;;9.85;5.60;;;0.60;99.90;;;;;;5154288;27;20057;-71
2022/03/08 02:14:08;;;;;;;9.13;5.35;;;0.60;99.90;;;;;;5138254;27;20050;-70
2022/03/08 02:16:34;;;;;;;9.75;5.15;;;0.60;99.90;;;;;;5121299;27;20122;-69
2022/03/08 02:19:00;;;;;;;9.60;5.47;;;0.60;99.90;;;;;;5137931;27;20129;-70
2022/03/08 02:21:25;;;;;;;9.98;5.10;;;0.50;99.90;;;;;;5138102;27;20138;-71
2022/03/08 02:23:52;;;;;;;10.05;5.75;;;0.50;99.90;;;;;;5137680;27;20047;-70
2022/03/08 02:26:21;;;;;;;12.75;6.90;;;0.50;99.90;;;;;;5138038;27;20446;-70
2022/03/08 02:28:47;;;;;;;12.63;6.13;;;0.50;99.90;;;;;;5121365;27;20129;-70
2022/03/08 02:31:12;;;;;;;11.50;5.70;;;0.50;99.90;;;;;;5121095;27;20134;-70
2022/03/08 02:33:39;;;;;;;12.18;6.25;;;0.50;99.90;;;;;;5137914;27;20099;-70
2022/03/08 02:36:06;;;;;;;12.85;5.80;;;0.60;99.90;;;;;;5137773;27;20047;-70
2022/03/08 02:38:33;;;;;;;11.50;6.10;;;0.60;99.90;;;;;;5121092;27;20085;-70
2022/03/08 02:40:59;;;;;;;15.55;6.75;;;0.60;99.90;;;;;;5137764;27;20043;-70
2022/03/08 02:43:27;;;;;;;11.55;6.43;;;0.60;99.90;;;;;;5137496;27;20463;-70
2022/03/08 02:45:53;;;;;;;11.50;6.38;;;0.60;99.90;;;;;;5136827;27;20050;-70
2022/03/08 02:48:20;;;;;;;16.52;7.25;;;0.60;99.90;;;;;;5120494;27;20046;-70
2022/03/08 02:50:46;;;;;;;14.13;7.65;;;0.60;99.90;;;;;;5137656;27;20039;-69
2022/03/08 02:53:12;;;;;;;11.02;6.78;;;0.60;99.90;;;;;;5137430;27;20047;-71
2022/03/08 02:55:38;;;;;;;12.55;6.88;;;0.50;99.90;;;;;;5102696;27;20380;-70
2022/03/08 02:58:05;;;;;;;15.07;7.93;;;0.60;99.90;;;;;;5137308;27;20043;-70
2022/03/08 03:00:32;;;;;;;16.08;7.30;;;0.60;99.90;;;;;;5119807;27;20043;-70
2022/03/08 03:02:58;;;;;;;14.27;7.20;;;0.50;99.90;;;;;;5137499;27;20055;-70
2022/03/08 03:05:25;;;;;;;10.48;6.38;;;0.50;99.90;;;;;;5120018;27;20051;-70
2022/03/08 03:07:51;;;;;;;14.07;6.78;;;0.50;99.90;;;;;;5137164;27;20047;-70
2022/03/08 03:10:19;;;;;;;12.35;7.60;;;0.50;99.90;;;;;;5137141;27;20035;-70
2022/03/08 03:12:45;;;;;;;14.10;6.57;;;0.40;99.90;;;;;;5137075;27;20042;-70
2022/03/08 03:15:14;;;;;;;16.85;7.30;;;0.40;99.90;;;;;;5137411;27;20057;-70
2022/03/08 03:17:41;;;;;;;13.20;7.53;;;0.40;99.90;;;;;;5103282;27;20086;-70
2022/03/08 03:20:12;;;;;;;14.40;8.15;;;0.40;99.90;;;;;;5103137;27;20080;-70
2022/03/08 03:22:38;;;;;;;14.63;8.57;;;0.40;99.90;;;;;;5119964;27;20572;-69
2022/03/08 03:25:06;;;;;;;12.40;7.32;;;0.40;99.90;;;;;;5119113;27;20050;-70
2022/03/08 03:27:32;;;;;;;12.77;7.95;;;0.40;99.90;;;;;;5119805;27;20051;-70
2022/03/08 03:29:58;;;;;;;14.95;8.18;;;0.40;99.90;;;;;;5155756;27;20054;-70
2022/03/08 03:32:24;;;;;;;14.68;7.80;;;0.40;99.90;;;;;;5155599;27;20039;-70
2022/03/08 03:34:50;;;;;;;13.93;8.30;;;0.30;99.90;;;;;;5119479;27;20125;-71
2022/03/08 03:37:16;;;;;;;16.48;9.10;;;0.30;99.90;;;;;;5136984;27;20043;-70
2022/03/08 03:39:42;;;;;;;15.30;9.05;;;0.30;99.90;;;;;;5119486;27;20043;-70
2022/03/08 03:42:08;;;;;;;16.30;9.23;;;0.20;99.90;;;;;;5136249;27;20454;-70
2022/03/08 03:44:34;;;;;;;13.43;8.00;;;0.20;99.90;;;;;;5136099;27;20079;-70
2022/03/08 03:47:00;;;;;;;16.85;9.30;;;0.20;99.90;;;;;;5136210;27;20043;-71
2022/03/08 03:49:26;;;;;;;16.88;9.45;;;0.20;99.90;;;;;;5136351;27;20114;-70
2022/03/08 03:51:53;;;;;;;15.98;8.68;;;0.20;99.90;;;;;;5136299;27;20728;-70
2022/03/08 03:54:21;;;;;;;15.07;8.68;;;0.20;99.90;;;;;;5136119;27;20050;-70
2022/03/08 03:56:47;;;;;;;15.43;8.73;;;0.20;99.90;;;;;;5119450;27;20049;-70
2022/03/08 03:59:13;;;;;;;16.65;9.90;;;0.20;99.90;;;;;;5135994;27;20475;-70
2022/03/08 04:01:39;;;;;;;13.38;9.02;;;0.20;99.90;;;;;;5135531;27;20047;-70
2022/03/08 04:04:05;;;;;;;18.20;9.75;;;0.20;99.90;;;;;;5135556;27;20082;-70
2022/03/08 04:06:32;;;;;;;14.30;8.90;;;0.20;99.90;;;;;;5132505;27;20051;-71
2022/03/08 04:08:58;;;;;;;16.85;9.30;;;0.20;99.90;;;;;;5115441;27;20130;-70
2022/03/08 04:11:24;;;;;;;18.38;10.13;;;0.10;99.90;;;;;;5132867;27;20423;-71
2022/03/08 04:13:50;;;;;;;21.13;10.98;;;0.10;99.90;;;;;;5132387;27;20085;-71
2022/03/08 04:16:15;;;;;;;15.25;9.48;;;0.10;99.90;;;;;;5115193;27;20134;-70
2022/03/08 04:18:41;;;;;;;18.50;10.93;;;0.10;99.90;;;;;;5131493;27;20086;-70
2022/03/08 04:21:07;;;;;;;20.65;9.90;;;0.10;99.90;;;;;;5132665;27;20566;-71
2022/03/08 04:23:33;;;;;;;17.77;10.55;;;0.20;99.90;;;;;;5114487;27;20047;-70
2022/03/08 04:25:59;;;;;;;16.88;10.00;;;0.20;99.90;;;;;;5115165;27;20120;-70
2022/03/08 04:28:24;;;;;;;19.90;12.50;;;0.20;99.90;;;;;;5132082;27;20047;-70
2022/03/08 04:30:50;;;;;;;17.77;10.15;;;0.20;99.90;;;;;;5132009;27;20043;-71
2022/03/08 04:33:16;;;;;;;16.98;9.93;;;0.30;99.90;;;;;;5114905;27;20043;-71
2022/03/08 04:35:42;;;;;;;18.27;11.10;;;0.20;99.90;;;;;;5131677;27;20051;-70
2022/03/08 04:38:08;;;;;;;16.52;10.07;;;0.20;99.90;;;;;;5131977;27;20047;-70
2022/03/08 04:40:35;;;;;;;16.75;10.18;;;0.30;99.90;;;;;;5132166;27;20050;-71
2022/03/08 04:43:03;;;;;;;17.90;10.25;;;0.20;99.90;;;;;;5131954;27;20096;-70
2022/03/08 04:45:29;;;;;;;18.67;10.93;;;0.20;99.90;;;;;;5114784;27;20043;-70
2022/03/08 04:47:56;;;;;;;23.33;11.77;;;0.20;99.90;;;;;;5131810;27;20134;-71
2022/03/08 04:50:22;;;;;;;19.35;10.77;;;0.20;99.90;;;;;;5131826;27;20125;-71
2022/03/08 04:52:49;;;;;;;20.25;11.80;;;0.20;99.90;;;;;;5114507;27;20055;-71
2022/03/08 04:55:17;;;;;;;19.38;11.73;;;0.20;99.90;;;;;;5097644;27;20043;-71
2022/03/08 04:57:43;;;;;;;18.75;11.75;;;0.20;99.90;;;;;;5097917;27;20101;-71
2022/03/08 05:00:13;;;;;;;18.13;12.45;;;0.20;99.90;;;;;;5131312;27;20081;-72
2022/03/08 05:02:41;;;;;;;19.08;11.25;;;0.20;99.90;;;;;;5114270;27;20053;-73
2022/03/08 05:05:23;;;;;;;25.17;12.27;;;0.20;99.90;;;;;;5066154;27;20462;-72
2022/03/08 05:07:48;;;;;;;22.38;12.13;;;0.20;99.90;;;;;;5097510;27;20047;-72
2022/03/08 05:10:14;;;;;;;21.58;12.88;;;0.20;99.90;;;;;;5097474;28;20396;-71
2022/03/08 05:12:41;;;;;;;20.42;11.45;;;0.20;99.90;;;;;;5114296;27;20051;-71
2022/03/08 05:15:10;;;;;;;21.00;11.77;;;0.30;99.90;;;;;;5080882;27;20058;-72
2022/03/08 05:17:36;;;;;;;22.23;12.55;;;0.30;99.90;;;;;;5080797;27;20529;-71
2022/03/08 05:20:05;;;;;;;18.63;12.05;;;0.30;99.90;;;;;;5080630;27;20051;-71
2022/03/08 05:22:31;;;;;;;20.88;11.98;;;0.30;99.90;;;;;;5080494;27;20529;-72
2022/03/08 05:24:56;;;;;;;23.73;12.07;;;0.30;99.90;;;;;;5114367;28;20119;-72
2022/03/08 05:27:22;;;;;;;19.83;12.20;;;0.30;99.90;;;;;;5114286;28;20203;-72
2022/03/08 05:29:48;;;;;;;20.55;12.48;;;0.30;99.90;;;;;;5113946;28;20126;-71
2022/03/08 05:32:14;;;;;;;19.70;11.68;;;0.30;99.90;;;;;;5113805;28;20528;-71
2022/03/08 05:34:41;;;;;;;22.85;12.88;;;0.30;99.90;;;;;;5114069;28;20050;-71
2022/03/08 05:37:07;;;;;;;20.58;11.65;;;0.30;99.90;;;;;;5114003;28;20099;-72
2022/03/08 05:39:33;;;;;;;22.85;12.23;;;0.30;99.90;;;;;;5097050;28;20051;-71
2022/03/08 05:41:59;;;;;;;20.05;12.40;;;0.30;99.90;;;;;;5097056;28;20043;-71
2022/03/08 05:44:24;;;;;;;23.55;11.98;;;0.30;99.90;;;;;;5113999;28;20402;-71
2022/03/08 05:46:50;;;;;;;20.70;12.63;;;0.30;99.90;;;;;;5115356;27;20414;-72
2022/03/08 05:49:17;;;;;;;22.80;12.23;;;0.30;99.90;;;;;;5100652;27;20043;-72
2022/03/08 05:51:43;;;;;;;22.05;13.23;;;0.20;99.90;;;;;;5101440;27;20070;-71
2022/03/08 05:54:09;;;;;;;20.20;12.07;;;0.20;99.90;;;;;;5117873;27;20502;-72
2022/03/08 05:56:35;;;;;;;22.80;12.63;;;0.20;99.90;;;;;;5117920;27;20047;-71
2022/03/08 05:59:01;;;;;;;23.50;12.07;;;0.30;99.90;;;;;;5118113;27;20134;-72
2022/03/08 06:01:27;;;;;;;25.98;13.10;;;0.20;99.90;;;;;;5117366;27;20074;-72
2022/03/08 06:03:52;;;;;;;25.25;14.05;;;0.20;99.90;;;;;;5136557;27;20051;-72
2022/03/08 06:06:18;;;;;;;20.58;11.43;;;0.20;99.90;;;;;;5114290;28;20051;-71
2022/03/08 06:08:44;;;;;;;21.67;11.35;;;0.20;99.90;;;;;;5114252;28;20414;-71
2022/03/08 06:11:10;;;;;;;20.90;12.57;;;0.20;99.90;;;;;;5097281;28;20105;-72
2022/03/08 06:13:36;;;;;;;20.77;13.10;;;0.30;99.90;;;;;;5114394;28;20466;-71
2022/03/08 06:16:02;;;;;;;21.65;12.23;;;0.30;99.90;;;;;;5114549;28;20083;-72
2022/03/08 06:18:28;;;;;;;28.83;15.73;;;0.30;99.90;;;;;;5114759;28;20051;-72
2022/03/08 06:20:53;;;;;;;26.10;14.35;;;0.30;99.90;;;;;;5115782;28;20494;-72
2022/03/08 06:23:19;;;;;;;19.50;12.02;;;0.30;99.90;;;;;;5114063;28;20051;-72
2022/03/08 06:25:45;;;;;;;22.70;12.85;;;0.40;99.90;;;;;;5115622;28;20612;-72
2022/03/08 06:28:11;;;;;;;21.63;11.85;;;0.40;99.90;;;;;;5113575;28;20058;-72
2022/03/08 06:30:37;;;;;;;18.95;11.65;;;0.40;99.90;;;;;;5097084;28;20154;-72
2022/03/08 06:33:04;;;;;;;18.33;11.27;;;0.50;99.90;;;;;;5113746;28;20055;-72
2022/03/08 06:35:31;;;;;;;21.58;12.07;;;0.50;99.90;;;;;;5113665;28;20054;-72
2022/03/08 06:37:57;;;;;;;21.25;12.77;;;0.60;99.90;;;;;;5113306;28;20047;-71
2022/03/08 06:40:24;;;;;;;20.88;11.75;;;0.60;99.90;;;;;;5113470;28;20055;-71
2022/03/08 06:42:50;;;;;;;23.30;12.30;;;0.60;99.90;;;;;;5113637;28;20495;-72
2022/03/08 06:45:16;;;;;;;17.33;10.88;;;0.60;99.90;;;;;;5114943;28;20051;-69
2022/03/08 06:47:41;;;;;;;19.00;11.52;;;0.70;99.90;;;;;;5096377;28;20055;-72
2022/03/08 06:50:08;;;;;;;18.80;10.35;;;0.80;99.90;;;;;;5113678;28;20051;-72
2022/03/08 06:52:33;;;;;;;21.52;11.13;;;0.80;99.90;;;;;;5113562;28;20092;-69
2022/03/08 06:55:00;;;;;;;19.33;10.52;;;0.90;99.90;;;;;;5112780;28;20040;-69
2022/03/08 06:57:26;;;;;;;22.27;11.18;;;0.90;99.90;;;;;;5095898;28;20043;-72
2022/03/08 06:59:52;;;;;;;15.10;9.30;;;1.00;99.90;;;;;;5095407;28;20059;-72
2022/03/08 07:02:18;;;;;;;24.05;11.93;;;1.00;99.90;;;;;;5096097;28;20491;-70
2022/03/08 07:04:44;;;;;;;20.73;12.13;;;1.10;99.90;;;;;;5114897;27;20126;-70
2022/03/08 07:07:10;;;;;;;18.08;10.70;;;1.20;99.90;;;;;;5116470;27;20107;-70
2022/03/08 07:09:36;;;;;;;20.55;10.85;;;1.20;99.90;;;;;;5116372;27;20047;-71
2022/03/08 07:12:01;;;;;;;17.55;10.20;;;1.30;99.90;;;;;;5116546;27;20070;-71
2022/03/08 07:14:27;;;;;;;22.25;11.90;;;1.40;99.90;;;;;;5098614;27;20074;-71
2022/03/08 07:16:54;;;;;;;19.65;11.18;;;1.50;99.90;;;;;;5116395;27;20050;-71
2022/03/08 07:19:20;;;;;;;21.17;10.25;;;1.60;99.90;;;;;;5116779;27;20119;-71
2022/03/08 07:21:46;;;;;;;19.75;10.63;;;1.70;99.90;;;;;;5099297;27;20081;-71
2022/03/08 07:24:13;;;;;;;17.55;10.65;;;1.80;99.90;;;;;;5116248;27;20039;-71
2022/03/08 07:26:39;;;;;;;19.90;11.02;;;1.90;99.90;;;;;;5099475;27;20130;-70
2022/03/08 07:29:05;;;;;;;19.60;11.38;;;2.10;99.90;;;;;;5134997;27;20569;-71
2022/03/08 07:31:31;;;;;;;19.75;9.52;;;2.20;99.90;;;;;;5135009;27;20394;-71
2022/03/08 07:33:57;;;;;;;19.85;10.13;;;2.30;99.90;;;;;;5134929;27;20051;-71
2022/03/08 07:36:23;;;;;;;16.13;8.98;;;2.40;99.90;;;;;;5115602;27;20675;-71
2022/03/08 07:38:50;;;;;;;17.02;10.60;;;2.50;99.90;;;;;;5116322;27;20146;-71
2022/03/08 07:41:16;;;;;;;19.42;9.73;;;2.60;99.90;;;;;;5115886;27;20509;-71
2022/03/08 07:43:41;;;;;;;19.00;10.48;;;2.70;99.90;;;;;;5115904;27;20043;-71
2022/03/08 07:46:09;;;;;;;29.77;11.23;;;2.80;99.90;;;;;;5115943;27;20112;-71
2022/03/08 07:48:36;;;;;;;18.35;9.70;;;2.90;99.90;;;;;;5116240;27;20126;-71
2022/03/08 07:51:03;;;;;;;39.05;9.50;;;3.00;99.90;;;;;;5115971;27;20046;-71
2022/03/08 07:53:30;;;;;;;16.02;9.65;;;3.10;99.90;;;;;;5115185;27;20447;-71
2022/03/08 07:55:56;;;;;;;16.52;9.65;;;3.20;99.90;;;;;;5115780;27;20089;-72
2022/03/08 07:58:21;;;;;;;16.08;9.07;;;3.30;99.90;;;;;;5098292;27;20078;-71
2022/03/08 08:00:48;;;;;;;17.40;9.23;;;3.40;99.90;;;;;;5108711;28;20046;-70
2022/03/08 08:03:14;;;;;;;14.27;9.32;;;3.40;99.90;;;;;;5095026;28;20565;-72
2022/03/08 08:05:39;;;;;;;17.27;9.93;;;3.40;99.90;;;;;;5085103;27;20134;-71
2022/03/08 08:08:06;;;;;;;16.50;9.45;;;3.50;99.90;;;;;;5115343;27;20115;-71
2022/03/08 08:10:33;;;;;;;15.35;9.13;;;3.60;99.90;;;;;;5098079;27;20043;-71
2022/03/08 08:13:00;;;;;;;15.07;9.05;;;3.60;99.90;;;;;;5098366;27;20089;-71
2022/03/08 08:15:26;;;;;;;16.70;9.27;;;3.70;99.90;;;;;;5080706;27;20047;-71
2022/03/08 08:17:52;;;;;;;15.40;8.93;;;3.70;99.90;;;;;;5115911;27;20410;-71
2022/03/08 08:20:18;;;;;;;17.65;10.32;;;3.80;99.90;;;;;;5098292;27;20439;-71
2022/03/08 08:22:44;;;;;;;15.50;9.27;;;3.90;99.90;;;;;;5097736;27;20055;-72
2022/03/08 08:25:11;;;;;;;19.42;9.45;;;3.90;99.90;;;;;;5115328;27;20035;-71
2022/03/08 08:27:37;;;;;;;12.55;8.02;;;4.00;99.90;;;;;;5114518;27;20090;-71
2022/03/08 08:30:10;;;;;;;16.38;8.88;;;4.00;99.90;;;;;;5114565;27;20051;-71
2022/03/08 08:32:36;;;;;;;20.15;9.88;;;4.10;99.90;;;;;;5080328;27;20398;-71
2022/03/08 08:35:03;;;;;;;17.75;8.98;;;4.20;99.90;;;;;;5115268;27;20101;-71
2022/03/08 08:37:28;;;;;;;15.93;9.20;;;4.30;99.90;;;;;;5114634;27;20070;-71
2022/03/08 08:39:55;;;;;;;21.70;9.88;;;4.30;99.90;;;;;;5133656;27;20500;-71
2022/03/08 08:42:21;;;;;;;18.55;9.50;;;4.40;99.90;;;;;;5097480;27;20039;-72
2022/03/08 08:44:47;;;;;;;15.43;8.68;;;4.40;99.90;;;;;;5114061;27;20053;-71
2022/03/08 08:47:13;;;;;;;15.32;10.38;;;4.50;99.90;;;;;;5113652;27;20047;-71
2022/03/08 08:49:39;;;;;;;13.40;8.60;;;4.60;99.90;;;;;;5097618;27;20083;-71
2022/03/08 08:52:05;;;;;;;17.75;8.55;;;4.60;99.90;;;;;;5097206;27;20100;-71
2022/03/08 08:54:31;;;;;;;14.68;9.20;;;4.70;99.90;;;;;;5114337;27;20047;-72
2022/03/08 08:56:57;;;;;;;14.05;8.88;;;4.80;99.90;;;;;;5097128;27;20057;-72
2022/03/08 08:59:23;;;;;;;28.65;10.38;;;4.90;99.90;;;;;;5097630;27;20132;-72
2022/03/08 09:01:49;;;;;;;14.50;9.40;;;5.00;99.90;;;;;;5113973;27;20473;-71
2022/03/08 09:04:15;;;;;;;22.15;10.20;;;5.10;99.90;;;;;;5097054;27;20079;-72
2022/03/08 09:06:41;;;;;;;14.60;7.78;;;5.20;99.90;;;;;;5097338;27;20046;-72
2022/03/08 09:09:07;;;;;;;15.65;8.95;;;5.30;99.90;;;;;;5096394;27;20062;-72
2022/03/08 09:11:33;;;;;;;15.48;8.18;;;5.40;99.90;;;;;;5097107;27;20055;-71
2022/03/08 09:14:05;;;;;;;15.55;8.45;;;5.50;99.90;;;;;;5097333;27;20494;-72
2022/03/08 09:16:31;;;;;;;15.60;8.80;;;5.60;99.90;;;;;;5081523;27;20078;-72
2022/03/08 09:18:57;;;;;;;15.77;8.57;;;5.70;99.90;;;;;;5133305;27;20047;-71
2022/03/08 09:21:23;;;;;;;17.00;9.57;;;5.80;99.90;;;;;;5114012;28;20128;-72
2022/03/08 09:23:49;;;;;;;13.38;8.82;;;5.90;99.90;;;;;;5096098;28;20051;-72
2022/03/08 09:26:15;;;;;;;17.40;9.98;;;6.00;99.90;;;;;;5114399;28;20103;-72
2022/03/08 09:28:41;;;;;;;16.73;8.50;;;6.20;99.90;;;;;;5113963;28;20410;-72
2022/03/08 09:31:07;;;;;;;18.38;10.25;;;6.30;99.90;;;;;;5114148;28;20561;-71
2022/03/08 09:33:33;;;;;;;13.63;9.23;;;6.50;99.90;;;;;;5114092;28;20095;-71
2022/03/08 09:35:59;;;;;;;17.85;9.13;;;6.60;99.90;;;;;;5114448;28;20054;-70
2022/03/08 09:38:24;;;;;;;13.98;8.80;;;6.80;99.90;;;;;;5097647;28;20069;-71
2022/03/08 09:40:54;;;;;;;15.32;8.70;;;6.90;99.90;;;;;;5113841;28;20486;-73
2022/03/08 09:43:19;;;;;;;16.95;8.75;;;7.00;99.90;;;;;;5096723;28;20086;-73
2022/03/08 09:45:45;;;;;;;13.32;8.00;;;7.20;99.90;;;;;;5132744;28;20079;-72
2022/03/08 09:48:11;;;;;;;11.35;7.03;;;7.20;99.90;;;;;;5132639;28;20078;-72
2022/03/08 09:50:38;;;;;;;12.60;7.07;;;7.40;99.90;;;;;;5114282;28;20082;-72
2022/03/08 09:53:04;;;;;;;14.25;7.90;;;7.50;99.00;;;;;;5113851;28;20540;-72
2022/03/08 09:55:30;;;;;;;10.52;7.07;;;7.70;99.00;;;;;;5096780;28;20119;-72
2022/03/08 09:57:55;;;;;;;10.93;5.43;;;7.90;98.20;;;;;;5113888;28;20494;-72
2022/03/08 10:00:23;;;;;;;10.18;6.80;;;8.00;96.80;;;;;;5096179;28;20518;-73
2022/03/08 10:02:52;;;;;;;24.90;6.45;;;8.00;95.40;;;;;;5113710;28;20043;-73
2022/03/08 10:05:39;;;;;;;9.40;5.80;;;8.10;95.00;;;;;;5129686;27;20093;-72
2022/03/08 10:08:21;;;;;;;12.15;6.30;;;8.30;93.70;;;;;;5083043;28;20055;-72
2022/03/08 10:10:50;;;;;;;10.60;5.40;;;8.40;93.90;;;;;;5113662;28;20047;-72
2022/03/08 10:13:19;;;;;;;11.55;6.18;;;8.50;93.90;;;;;;5113421;28;20051;-72
2022/03/08 10:16:04;;;;;;;13.90;6.47;;;8.50;93.00;;;;;;5096708;28;20039;-72
2022/03/08 10:18:38;;;;;;;10.25;5.65;;;8.70;92.70;;;;;;5096569;28;20043;-72
2022/03/08 10:21:04;;;;;;;9.43;5.60;;;8.80;92.60;;;;;;5113353;28;20044;-72
2022/03/08 10:23:41;;;;;;;10.35;5.72;;;8.80;90.20;;;;;;5113392;28;20057;-72
2022/03/08 10:26:10;;;;;;;10.68;6.28;;;8.90;91.20;;;;;;5113232;28;20050;-71
2022/03/08 10:28:50;;;;;;;8.68;5.82;;;9.00;91.20;;;;;;5113582;28;20498;-72
2022/03/08 10:31:17;;;;;;;9.80;5.90;;;9.10;87.30;;;;;;5096482;28;20559;-71
2022/03/08 10:33:44;;;;;;;14.20;6.15;;;9.30;91.80;;;;;;5134846;27;20057;-72
2022/03/08 10:36:16;;;;;;;10.40;5.90;;;9.40;91.70;;;;;;5135739;27;20043;-72
2022/03/08 10:39:09;;;;;;;10.40;6.55;;;9.50;90.00;;;;;;5099811;27;20134;-72
2022/03/08 10:41:58;;;;;;;8.10;5.38;;;9.70;89.30;;;;;;5101188;27;20134;-72
2022/03/08 10:44:55;;;;;;;12.45;6.22;;;9.80;89.90;;;;;;5117120;27;20055;-72
2022/03/08 10:47:21;;;;;;;9.48;5.75;;;10.10;85.70;;;;;;5116920;27;20043;-72
2022/03/08 10:50:07;;;;;;;9.95;5.95;;;10.30;86.60;;;;;;5117120;27;20100;-72
2022/03/08 10:52:37;;;;;;;11.05;5.30;;;10.30;89.10;;;;;;5081478;27;20421;-72
2022/03/08 10:55:21;;;;;;;12.48;5.93;;;10.50;84.60;;;;;;5135876;27;20043;-72
2022/03/08 10:57:54;;;;;;;13.17;4.83;;;10.50;72.80;;;;;;5100050;27;20059;-72
2022/03/08 11:00:25;;;;;;;8.90;5.22;;;10.80;72.50;;;;;;5114316;27;20046;-73
2022/03/08 11:02:57;;;;;;;8.35;5.55;;;10.80;68.10;;;;;;5079257;28;20204;-72
2022/03/08 11:05:30;;;;;;;8.68;4.30;;;10.90;61.30;;;;;;5075815;28;20150;-72
2022/03/08 11:07:57;;;;;;;7.63;4.57;;;11.00;61.20;;;;;;5058535;28;20052;-72
2022/03/08 11:10:24;;;;;;;8.48;4.90;;;11.10;62.00;;;;;;5075921;28;20056;-72
2022/03/08 11:12:52;;;;;;;9.25;4.72;;;11.30;56.30;;;;;;5094470;28;20051;-73
2022/03/08 11:15:19;;;;;;;7.18;4.43;;;11.40;56.60;;;;;;5075646;28;20132;-73
2022/03/08 11:17:47;;;;;;;7.43;4.40;;;11.80;57.50;;;;;;5058345;28;20048;-72
2022/03/08 11:20:17;;;;;;;7.05;4.80;;;11.90;57.00;;;;;;5042605;28;20058;-72
2022/03/08 11:22:53;;;;;;;7.45;4.55;;;12.00;53.90;;;;;;5059700;28;20052;-72
2022/03/08 11:25:22;;;;;;;10.18;4.78;;;12.30;54.70;;;;;;5060614;28;20048;-72
2022/03/08 11:27:48;;;;;;;7.75;5.00;;;12.50;53.30;;;;;;5094089;28;20040;-72
2022/03/08 11:30:20;;;;;;;6.50;4.07;;;12.50;51.80;;;;;;5074202;28;20403;-72
2022/03/08 11:32:58;;;;;;;6.68;4.15;;;12.70;51.00;;;;;;5036906;28;20136;-71
2022/03/08 11:35:52;;;;;;;7.40;4.05;;;12.90;51.20;;;;;;5075324;28;20048;-72
2022/03/08 11:38:18;;;;;;;9.48;4.72;;;13.40;48.70;;;;;;5075405;28;20051;-72
2022/03/08 11:40:49;;;;;;;7.38;3.95;;;13.60;48.10;;;;;;5058791;28;20044;-72
2022/03/08 11:43:15;;;;;;;6.68;4.20;;;13.90;47.50;;;;;;5074990;28;20047;-72
2022/03/08 11:45:42;;;;;;;7.05;4.10;;;14.10;46.50;;;;;;5074493;28;20556;-72
2022/03/08 11:48:09;;;;;;;6.72;3.95;;;14.30;44.50;;;;;;5093209;28;20519;-73
2022/03/08 11:50:39;;;;;;;17.52;4.28;;;14.30;44.60;;;;;;5058394;28;20093;-72
2022/03/08 11:53:05;;;;;;;7.00;4.50;;;14.80;45.80;;;;;;5058635;28;20044;-73
2022/03/08 11:56:04;;;;;;;10.90;5.03;;;14.90;44.70;;;;;;5058013;28;20496;-72
2022/03/08 11:58:45;;;;;;;7.72;4.30;;;14.90;43.80;;;;;;5063095;28;20068;-72
2022/03/08 12:01:40;;;;;;;6.53;4.28;;;15.30;43.30;;;;;;5068706;27;20043;-72
2022/03/08 12:04:09;;;;;;;;;;;15.60;42.80;;;;;;5094658;27;20058;-73
2022/03/08 12:06:37;;;;;;;7.35;4.10;;;15.50;40.30;;;;;;5110737;27;20046;-73
2022/03/08 12:09:09;;;;;;;8.07;4.65;;;16.00;42.40;;;;;;5102404;27;20054;-72
2022/03/08 12:11:57;;;;;;;5.93;3.97;;;16.60;41.30;;;;;;5135860;27;20047;-72
2022/03/08 12:14:25;;;;;;;7.80;3.92;;;16.80;39.90;;;;;;5118909;27;20054;-72
2022/03/08 12:17:04;;;;;;;7.88;4.05;;;16.80;38.70;;;;;;5135877;27;20495;-72
2022/03/08 12:19:34;;;;;;;7.10;4.00;;;16.80;38.90;;;;;;5118478;27;20055;-72
2022/03/08 12:22:01;;;;;;;7.07;3.90;;;16.80;38.10;;;;;;5136133;27;20103;-72
2022/03/08 12:24:32;;;;;;;8.00;4.43;;;16.80;37.70;;;;;;5135420;27;20086;-72
2022/03/08 12:27:04;;;;;;;6.25;3.67;;;17.20;38.50;;;;;;5154591;27;20098;-71
2022/03/08 12:29:36;;;;;;;5.60;3.50;;;17.40;37.90;;;;;;5135970;27;20050;-72
2022/03/08 12:32:05;;;;;;;8.68;4.53;;;17.70;36.70;;;;;;5118461;27;20046;-72
2022/03/08 12:34:39;;;;;;;7.15;3.55;;;17.70;36.00;;;;;;5118417;27;20500;-72
2022/03/08 12:37:08;;;;;;;6.57;3.58;;;17.90;36.80;;;;;;5135146;27;20051;-72
2022/03/08 12:40:46;;;;;;;10.05;3.97;;;18.40;35.60;;;;;;5118526;27;20066;-72
2022/03/08 12:43:13;;;;;;;5.50;3.17;;;18.00;34.10;;;;;;5013239;28;20480;-72
2022/03/08 12:45:45;;;;;;;6.43;3.67;;;18.30;35.40;;;;;;4997272;28;20456;-72
2022/03/08 12:48:13;;;;;;;7.15;3.67;;;18.90;34.90;;;;;;5013507;28;20520;-72
2022/03/08 12:50:40;;;;;;;7.47;3.80;;;18.80;34.00;;;;;;5013280;28;20481;-72